createdAt,value
2022-07-28T00:00:04.840Z,60.00
2022-07-28T00:02:35.147Z,60.90
2022-07-28T00:05:01.968Z,59.90
2022-07-28T00:07:28.759Z,59.80
2022-07-28T00:10:00.828Z,59.80
2022-07-28T00:12:27.990Z,59.70
2022-07-28T00:14:54.737Z,59.70
2022-07-28T00:17:21.474Z,59.70
2022-07-28T00:19:48.205Z,59.70
2022-07-28T00:22:14.917Z,59.60
2022-07-28T00:24:41.698Z,59.60
2022-07-28T00:27:09.281Z,59.50
2022-07-28T00:29:49.784Z,59.50
2022-07-28T00:32:17.162Z,59.50
2022-07-28T00:34:44.197Z,59.40
2022-07-28T00:37:13.309Z,59.40
2022-07-28T00:39:41.813Z,59.40
2022-07-28T00:42:09.142Z,59.30
2022-07-28T00:44:35.894Z,59.30
2022-07-28T00:47:02.696Z,59.20
2022-07-28T00:49:29.817Z,59.20
2022-07-28T00:51:56.749Z,59.20
2022-07-28T00:54:23.532Z,59.10
2022-07-28T00:56:51.013Z,59.20
2022-07-28T00:59:17.774Z,59.10
2022-07-28T01:01:44.656Z,59.20
2022-07-28T01:04:11.913Z,59.10
2022-07-28T01:06:51.054Z,59.10
2022-07-28T01:09:24.751Z,58.90
2022-07-28T01:12:10.085Z,58.90
2022-07-28T01:14:40.728Z,58.80
2022-07-28T01:17:13.558Z,59.00
2022-07-28T01:19:52.289Z,58.90
2022-07-28T01:22:22.307Z,58.90
2022-07-28T01:24:58.642Z,59.10
2022-07-28T01:27:28.162Z,58.90
2022-07-28T01:29:57.957Z,59.00
2022-07-28T01:32:25.930Z,58.80
2022-07-28T01:35:11.530Z,58.90
2022-07-28T01:37:47.632Z,59.00
2022-07-28T01:40:15.691Z,58.80
2022-07-28T01:42:44.188Z,59.00
2022-07-28T01:45:11.070Z,59.70
2022-07-28T01:47:37.814Z,58.90
2022-07-28T01:50:05.313Z,59.00
2022-07-28T01:52:32.428Z,58.90
2022-07-28T01:54:59.273Z,58.90
2022-07-28T01:57:26.039Z,58.90
2022-07-28T01:59:52.785Z,59.00
2022-07-28T02:02:19.635Z,58.90
2022-07-28T02:04:47.599Z,58.90
2022-07-28T02:07:14.544Z,58.90
2022-07-28T02:09:41.277Z,59.00
2022-07-28T02:12:08.188Z,59.00
2022-07-28T02:14:36.430Z,58.80
2022-07-28T02:17:04.691Z,58.80
2022-07-28T02:19:31.429Z,58.80
2022-07-28T02:21:58.235Z,58.90
2022-07-28T02:24:28.128Z,58.80
2022-07-28T02:27:03.939Z,58.70
2022-07-28T02:29:50.354Z,58.60
2022-07-28T02:32:41.449Z,58.80
2022-07-28T02:35:15.413Z,58.70
2022-07-28T02:37:46.051Z,58.60
2022-07-28T02:40:13.778Z,58.70
2022-07-28T02:42:40.804Z,58.70
2022-07-28T02:45:08.262Z,58.60
2022-07-28T02:47:40.709Z,58.70
2022-07-28T02:50:07.536Z,58.70
2022-07-28T02:52:34.299Z,58.60
2022-07-28T02:55:01.041Z,58.60
2022-07-28T02:57:28.674Z,58.60
2022-07-28T02:59:55.462Z,58.50
2022-07-28T03:02:22.352Z,58.50
2022-07-28T03:05:07.621Z,58.50
2022-07-28T03:07:41.594Z,58.50
2022-07-28T03:10:18.515Z,58.30
2022-07-28T03:13:03.862Z,58.30
2022-07-28T03:15:31.246Z,58.20
2022-07-28T03:17:58.410Z,58.20
2022-07-28T03:20:25.187Z,58.10
2022-07-28T03:22:51.929Z,58.10
2022-07-28T03:25:39.037Z,58.10
2022-07-28T03:28:06.177Z,58.00
2022-07-28T03:30:33.540Z,58.00
2022-07-28T03:33:03.614Z,57.90
2022-07-28T03:35:31.607Z,57.90
2022-07-28T03:37:59.207Z,57.80
2022-07-28T03:40:26.930Z,57.80
2022-07-28T03:42:54.009Z,57.70
2022-07-28T03:45:20.823Z,57.80
2022-07-28T03:47:51.341Z,57.60
2022-07-28T03:50:18.207Z,57.50
2022-07-28T03:52:44.959Z,57.50
2022-07-28T03:55:11.720Z,57.60
2022-07-28T03:57:38.453Z,57.60
2022-07-28T04:00:09.549Z,57.40
2022-07-28T04:02:36.837Z,57.30
2022-07-28T04:05:03.777Z,57.30
2022-07-28T04:07:30.796Z,58.10
2022-07-28T04:09:57.610Z,57.20
2022-07-28T04:12:24.367Z,57.10
2022-07-28T04:14:51.325Z,57.10
2022-07-28T04:17:18.060Z,57.10
2022-07-28T04:19:44.813Z,56.90
2022-07-28T04:22:11.588Z,56.90
2022-07-28T04:24:38.380Z,56.80
2022-07-28T04:27:05.130Z,56.70
2022-07-28T04:29:31.897Z,56.70
2022-07-28T04:31:59.831Z,56.60
2022-07-28T04:34:26.636Z,56.60
2022-07-28T04:36:53.353Z,56.50
2022-07-28T04:39:20.098Z,56.40
2022-07-28T04:41:46.852Z,56.50
2022-07-28T04:44:14.037Z,56.40
2022-07-28T04:46:41.689Z,56.30
2022-07-28T04:49:08.792Z,56.40
2022-07-28T04:51:35.876Z,56.30
2022-07-28T04:54:02.644Z,56.30
2022-07-28T04:56:29.424Z,56.30
2022-07-28T04:58:56.255Z,56.20
2022-07-28T05:01:23.948Z,56.30
2022-07-28T05:03:50.795Z,56.30
2022-07-28T05:06:18.706Z,56.10
2022-07-28T05:08:45.446Z,56.20
2022-07-28T05:11:17.938Z,56.10
2022-07-28T05:13:44.674Z,55.90
2022-07-28T05:16:11.509Z,56.10
2022-07-28T05:18:38.263Z,55.90
2022-07-28T05:21:05.000Z,55.90
2022-07-28T05:23:31.808Z,55.90
2022-07-28T05:25:58.566Z,56.00
2022-07-28T05:28:25.362Z,56.40
2022-07-28T05:30:52.197Z,55.80
2022-07-28T05:33:18.944Z,55.70
2022-07-28T05:35:45.748Z,55.60
2022-07-28T05:38:12.627Z,55.50
2022-07-28T05:40:39.392Z,55.50
2022-07-28T05:43:06.137Z,55.50
2022-07-28T05:45:34.288Z,55.50
2022-07-28T05:48:03.617Z,55.40
2022-07-28T05:50:30.377Z,55.30
2022-07-28T05:52:57.118Z,55.10
2022-07-28T05:55:23.866Z,55.20
2022-07-28T05:57:51.100Z,55.10
2022-07-28T06:00:18.743Z,55.00
2022-07-28T06:02:47.516Z,54.80
2022-07-28T06:05:14.750Z,54.70
2022-07-28T06:07:43.243Z,54.60
2022-07-28T06:10:14.782Z,54.50
2022-07-28T06:12:42.097Z,54.40
2022-07-28T06:15:12.040Z,54.40
2022-07-28T06:17:38.804Z,54.50
2022-07-28T06:20:05.820Z,54.30
2022-07-28T06:22:45.129Z,54.20
2022-07-28T06:25:12.830Z,54.20
2022-07-28T06:27:39.609Z,54.30
2022-07-28T06:30:06.825Z,54.20
2022-07-28T06:32:33.545Z,54.10
2022-07-28T06:35:00.395Z,54.10
2022-07-28T06:37:27.108Z,54.20
2022-07-28T06:39:53.898Z,54.20
2022-07-28T06:42:20.626Z,54.50
2022-07-28T06:44:58.331Z,54.20
2022-07-28T06:47:25.928Z,54.30
2022-07-28T06:49:52.652Z,54.20
2022-07-28T06:52:20.852Z,54.30
2022-07-28T06:54:48.931Z,54.30
2022-07-28T06:57:16.928Z,54.30
2022-07-28T06:59:43.774Z,54.40
2022-07-28T07:02:10.491Z,54.60
2022-07-28T07:04:37.322Z,54.70
2022-07-28T07:07:04.197Z,54.50
2022-07-28T07:09:41.768Z,54.60
2022-07-28T07:12:08.541Z,54.50
2022-07-28T07:14:35.343Z,54.60
2022-07-28T07:17:02.140Z,54.50
2022-07-28T07:19:28.866Z,54.40
2022-07-28T07:21:55.910Z,54.30
2022-07-28T07:24:22.655Z,54.40
2022-07-28T07:26:50.740Z,54.50
2022-07-28T07:29:17.492Z,54.50
2022-07-28T07:31:44.346Z,54.50
2022-07-28T07:34:11.293Z,54.40
2022-07-28T07:36:38.284Z,54.50
2022-07-28T07:39:05.084Z,54.40
2022-07-28T07:41:31.842Z,54.40
2022-07-28T07:43:58.606Z,54.40
2022-07-28T07:46:25.389Z,54.30
2022-07-28T07:48:52.201Z,54.40
2022-07-28T07:51:18.992Z,54.30
2022-07-28T07:53:45.739Z,54.40
2022-07-28T07:56:14.457Z,54.40
2022-07-28T07:58:41.229Z,54.40
2022-07-28T08:01:07.976Z,54.60
2022-07-28T08:03:34.703Z,54.50
2022-07-28T08:06:02.423Z,54.30
2022-07-28T08:08:29.175Z,54.20
2022-07-28T08:10:55.908Z,54.20
2022-07-28T08:13:23.749Z,54.30
2022-07-28T08:15:50.763Z,54.20
2022-07-28T08:18:17.596Z,54.10
2022-07-28T08:20:44.365Z,54.50
2022-07-28T08:23:11.162Z,54.70
2022-07-28T08:25:38.033Z,54.50
2022-07-28T08:28:04.927Z,54.10
2022-07-28T08:30:32.941Z,54.30
2022-07-28T08:33:00.335Z,54.20
2022-07-28T08:35:33.434Z,54.30
2022-07-28T08:38:00.718Z,54.50
2022-07-28T08:40:27.727Z,54.40
2022-07-28T08:43:00.909Z,54.40
2022-07-28T08:45:28.230Z,54.20
2022-07-28T08:48:08.319Z,54.20
2022-07-28T08:50:35.745Z,54.40
2022-07-28T08:53:02.560Z,54.30
2022-07-28T08:55:32.031Z,54.20
2022-07-28T08:58:00.242Z,54.20
2022-07-28T09:00:27.335Z,54.20
2022-07-28T09:02:54.109Z,54.30
2022-07-28T09:05:21.505Z,54.30
2022-07-28T09:07:54.591Z,54.30
2022-07-28T09:10:22.197Z,54.10
2022-07-28T09:12:49.028Z,54.20
2022-07-28T09:15:15.946Z,54.20
2022-07-28T09:17:42.860Z,54.20
2022-07-28T09:20:11.331Z,54.20
2022-07-28T09:22:54.124Z,54.20
2022-07-28T09:25:22.233Z,53.90
2022-07-28T09:27:49.045Z,53.50
2022-07-28T09:30:15.767Z,54.00
2022-07-28T09:32:42.512Z,54.10
2022-07-28T09:35:19.824Z,54.20
2022-07-28T09:37:46.676Z,54.70
2022-07-28T09:40:13.694Z,54.90
2022-07-28T09:42:47.048Z,55.00
2022-07-28T09:45:22.808Z,55.00
2022-07-28T09:47:56.751Z,55.00
2022-07-28T09:50:27.783Z,55.10
2022-07-28T09:52:54.534Z,55.00
2022-07-28T09:55:21.270Z,55.10
2022-07-28T09:57:48.020Z,55.10
2022-07-28T10:00:24.614Z,55.10
2022-07-28T10:02:54.593Z,55.50
2022-07-28T10:05:21.493Z,55.40
2022-07-28T10:07:49.008Z,55.50
2022-07-28T10:10:16.265Z,55.50
2022-07-28T10:12:43.015Z,55.50
2022-07-28T10:15:31.790Z,56.10
2022-07-28T10:17:58.603Z,55.50
2022-07-28T10:20:25.381Z,55.50
2022-07-28T10:22:52.535Z,55.60
2022-07-28T10:25:19.247Z,55.50
2022-07-28T10:27:46.061Z,55.50
2022-07-28T10:30:13.113Z,55.50
2022-07-28T10:32:41.779Z,55.40
2022-07-28T10:35:17.713Z,55.30
2022-07-28T10:37:44.517Z,55.00
2022-07-28T10:40:11.765Z,55.40
2022-07-28T10:42:38.804Z,55.40
2022-07-28T10:45:05.764Z,55.20
2022-07-28T10:47:36.368Z,55.10
2022-07-28T10:50:03.784Z,55.10
2022-07-28T10:52:46.257Z,55.20
2022-07-28T10:55:32.099Z,55.10
2022-07-28T10:58:01.715Z,55.00
2022-07-28T11:00:55.305Z,55.00
2022-07-28T11:03:47.183Z,55.30
2022-07-28T11:06:34.725Z,55.00
2022-07-28T11:09:21.856Z,55.00
2022-07-28T11:11:51.945Z,54.90
2022-07-28T11:14:37.626Z,54.50
2022-07-28T11:17:05.820Z,55.20
2022-07-28T11:19:55.759Z,55.10
2022-07-28T11:22:32.833Z,54.30
2022-07-28T11:25:17.991Z,54.10
2022-07-28T11:27:49.849Z,53.90
2022-07-28T11:30:26.066Z,54.10
2022-07-28T11:32:55.732Z,54.00
2022-07-28T11:35:26.512Z,54.10
2022-07-28T11:38:02.598Z,54.10
2022-07-28T11:40:29.520Z,54.20
2022-07-28T11:43:14.764Z,54.30
2022-07-28T11:45:54.109Z,54.20
2022-07-28T11:48:23.060Z,54.10
2022-07-28T11:51:16.095Z,54.20
2022-07-28T11:53:43.710Z,54.20
2022-07-28T11:56:13.949Z,54.50
2022-07-28T11:58:40.870Z,54.40
2022-07-28T12:01:18.947Z,54.70
2022-07-28T12:03:55.756Z,52.20
2022-07-28T12:06:28.925Z,51.10
2022-07-28T12:08:59.653Z,50.00
2022-07-28T12:11:26.783Z,49.60
2022-07-28T12:14:03.228Z,49.60
2022-07-28T12:16:30.349Z,49.20
2022-07-28T12:19:00.056Z,49.10
2022-07-28T12:21:45.961Z,49.00
2022-07-28T12:24:15.434Z,48.30
2022-07-28T12:26:43.412Z,47.90
2022-07-28T12:29:13.617Z,47.50
2022-07-28T12:32:00.830Z,47.60
2022-07-28T12:34:29.203Z,48.00
2022-07-28T12:36:59.564Z,47.90
2022-07-28T12:39:26.462Z,47.90
2022-07-28T12:42:04.042Z,47.70
2022-07-28T12:44:37.709Z,47.20
2022-07-28T12:47:04.933Z,46.70
2022-07-28T12:49:31.674Z,46.60
2022-07-28T12:51:59.257Z,46.60
2022-07-28T12:54:36.230Z,46.40
2022-07-28T12:57:03.098Z,46.10
2022-07-28T12:59:33.624Z,46.50
2022-07-28T13:02:00.620Z,45.50
2022-07-28T13:04:46.121Z,45.20
2022-07-28T13:07:13.758Z,45.10
2022-07-28T13:09:47.159Z,45.10
2022-07-28T13:12:16.607Z,44.90
2022-07-28T13:14:44.402Z,44.60
2022-07-28T13:17:11.168Z,44.30
2022-07-28T13:19:37.982Z,44.70
2022-07-28T13:22:08.877Z,43.80
2022-07-28T13:24:36.175Z,43.40
2022-07-28T13:27:03.223Z,43.00
2022-07-28T13:29:33.151Z,42.90
2022-07-28T13:32:00.582Z,42.30
2022-07-28T13:34:27.517Z,42.20
2022-07-28T13:36:54.348Z,42.00
2022-07-28T13:39:21.108Z,41.80
2022-07-28T13:41:56.909Z,41.60
2022-07-28T13:44:26.332Z,41.20
2022-07-28T13:46:53.289Z,41.10
2022-07-28T13:49:22.841Z,40.80
2022-07-28T13:51:51.292Z,40.80
2022-07-28T13:54:19.309Z,40.50
2022-07-28T13:56:46.581Z,40.30
2022-07-28T13:59:13.859Z,40.30
2022-07-28T14:01:43.933Z,40.10
2022-07-28T14:04:17.628Z,39.60
2022-07-28T14:06:45.193Z,39.70
2022-07-28T14:09:12.145Z,39.60
2022-07-28T14:11:41.365Z,39.50
2022-07-28T14:14:20.205Z,39.60
2022-07-28T14:16:48.021Z,40.00
2022-07-28T14:19:22.973Z,40.30
2022-07-28T14:21:49.904Z,40.70
2022-07-28T14:24:17.228Z,41.10
2022-07-28T14:26:44.502Z,41.60
2022-07-28T14:29:11.839Z,41.80
2022-07-28T14:31:38.729Z,42.00
2022-07-28T14:34:05.634Z,42.50
2022-07-28T14:36:32.369Z,42.60
2022-07-28T14:38:59.123Z,42.90
2022-07-28T14:41:26.017Z,43.20
2022-07-28T14:43:52.992Z,43.50
2022-07-28T14:46:21.838Z,43.70
2022-07-28T14:48:49.068Z,43.60
2022-07-28T14:51:15.907Z,44.00
2022-07-28T14:53:50.044Z,44.30
2022-07-28T14:56:18.703Z,44.80
2022-07-28T14:58:45.428Z,45.00
2022-07-28T15:01:12.272Z,45.40
2022-07-28T15:03:43.604Z,45.60
2022-07-28T15:06:10.662Z,45.80
2022-07-28T15:08:37.420Z,46.10
2022-07-28T15:11:04.168Z,46.40
2022-07-28T15:13:30.914Z,46.60
2022-07-28T15:16:00.118Z,46.80
2022-07-28T15:18:27.039Z,47.10
2022-07-28T15:20:56.236Z,47.30
2022-07-28T15:23:23.224Z,47.20
2022-07-28T15:25:50.434Z,47.70
2022-07-28T15:28:17.724Z,47.80
2022-07-28T15:30:51.683Z,47.90
2022-07-28T15:33:19.698Z,47.90
2022-07-28T15:35:57.913Z,48.20
2022-07-28T15:38:31.978Z,48.30
2022-07-28T15:40:59.081Z,48.50
2022-07-28T15:43:26.122Z,48.60
2022-07-28T15:45:53.544Z,48.80
2022-07-28T15:48:22.610Z,48.80
2022-07-28T15:50:49.345Z,48.80
2022-07-28T15:53:16.309Z,49.00
2022-07-28T15:55:46.365Z,49.20
2022-07-28T15:58:17.385Z,49.30
2022-07-28T16:00:44.696Z,49.20
2022-07-28T16:03:11.802Z,49.40
2022-07-28T16:05:38.651Z,49.50
2022-07-28T16:08:05.500Z,49.80
2022-07-28T16:10:32.251Z,49.50
2022-07-28T16:12:59.013Z,49.70
2022-07-28T16:15:27.118Z,49.70
2022-07-28T16:17:54.266Z,50.00
2022-07-28T16:20:21.072Z,49.80
2022-07-28T16:22:47.921Z,49.90
2022-07-28T16:25:17.652Z,50.20
2022-07-28T16:27:44.673Z,50.10
2022-07-28T16:30:11.829Z,50.30
2022-07-28T16:32:38.853Z,50.50
2022-07-28T16:35:06.660Z,50.60
2022-07-28T16:37:33.866Z,50.70
2022-07-28T16:40:00.604Z,50.90
2022-07-28T16:42:27.338Z,51.00
2022-07-28T16:44:54.113Z,51.00
2022-07-28T16:47:21.230Z,51.10
2022-07-28T16:49:47.969Z,51.10
2022-07-28T16:52:14.957Z,51.20
2022-07-28T16:54:41.925Z,51.30
2022-07-28T16:57:08.783Z,51.40
2022-07-28T16:59:37.686Z,51.40
2022-07-28T17:02:15.465Z,51.50
2022-07-28T17:04:42.357Z,52.10
2022-07-28T17:07:09.291Z,52.10
2022-07-28T17:09:36.062Z,54.90
2022-07-28T17:12:02.819Z,56.50
2022-07-28T17:14:29.550Z,60.90
2022-07-28T17:16:56.289Z,57.60
2022-07-28T17:19:23.105Z,56.80
2022-07-28T17:21:49.938Z,55.70
2022-07-28T17:24:17.097Z,53.80
2022-07-28T17:29:31.008Z,51.70
2022-07-28T17:31:57.751Z,50.50
2022-07-28T17:34:24.667Z,49.50
2022-07-28T17:36:51.573Z,48.60
2022-07-28T17:39:18.361Z,47.80
2022-07-28T17:41:46.134Z,47.00
2022-07-28T17:44:13.071Z,46.30
2022-07-28T17:46:40.168Z,47.40
2022-07-28T17:49:08.780Z,47.50
2022-07-28T17:51:35.716Z,47.30
2022-07-28T17:54:02.440Z,46.80
2022-07-28T17:56:31.907Z,45.90
2022-07-28T17:58:58.896Z,45.50
2022-07-28T18:01:25.699Z,46.20
2022-07-28T18:03:59.343Z,46.90
2022-07-28T18:06:32.283Z,47.10
2022-07-28T18:09:05.525Z,47.10
2022-07-28T18:11:33.710Z,47.30
2022-07-28T18:14:03.795Z,47.50
2022-07-28T18:16:32.569Z,47.50
2022-07-28T18:18:59.298Z,47.70
2022-07-28T18:21:26.758Z,47.70
2022-07-28T18:23:55.174Z,47.70
2022-07-28T18:26:22.221Z,47.80
2022-07-28T18:28:49.155Z,47.90
2022-07-28T18:31:15.977Z,48.00
2022-07-28T18:33:42.823Z,48.10
2022-07-28T18:36:10.125Z,48.20
2022-07-28T18:38:37.006Z,48.30
2022-07-28T18:41:03.744Z,48.40
2022-07-28T18:43:30.476Z,48.30
2022-07-28T18:45:57.262Z,48.40
2022-07-28T18:48:25.642Z,48.60
2022-07-28T18:50:52.619Z,48.60
2022-07-28T18:53:19.370Z,48.70
2022-07-28T18:55:46.119Z,48.80
2022-07-28T18:58:12.893Z,48.80
2022-07-28T19:00:39.659Z,48.90
2022-07-28T19:03:06.514Z,48.90
2022-07-28T19:05:36.401Z,48.90
2022-07-28T19:08:04.492Z,49.00
2022-07-28T19:10:32.242Z,48.90
2022-07-28T19:12:59.054Z,49.00
2022-07-28T19:15:25.853Z,49.20
2022-07-28T19:17:52.708Z,49.20
2022-07-28T19:20:41.499Z,49.10
2022-07-28T19:23:08.288Z,49.20
2022-07-28T19:25:37.811Z,49.20
2022-07-28T19:28:04.948Z,49.20
2022-07-28T19:30:32.408Z,49.40
2022-07-28T19:32:59.385Z,49.60
2022-07-28T19:35:26.261Z,49.40
2022-07-28T19:37:53.312Z,49.40
2022-07-28T19:40:20.281Z,49.80
2022-07-28T19:42:48.488Z,49.60
2022-07-28T19:45:15.466Z,49.80
2022-07-28T19:47:42.736Z,50.10
2022-07-28T19:50:09.631Z,50.20
2022-07-28T19:52:37.627Z,50.30
2022-07-28T19:55:05.235Z,50.50
2022-07-28T19:57:32.793Z,50.70
2022-07-28T19:59:59.886Z,50.70
2022-07-28T20:02:26.713Z,50.80
2022-07-28T20:04:53.494Z,50.70
2022-07-28T20:07:20.217Z,51.00
2022-07-28T20:09:46.962Z,50.80
2022-07-28T20:12:13.708Z,50.70
2022-07-28T20:14:40.491Z,50.70
2022-07-28T20:17:07.381Z,50.90
2022-07-28T20:19:34.188Z,51.00
2022-07-28T20:22:00.949Z,51.00
2022-07-28T20:24:27.695Z,51.00
2022-07-28T20:26:54.478Z,51.20
2022-07-28T20:29:21.195Z,51.20
2022-07-28T20:31:49.421Z,51.20
2022-07-28T20:34:16.535Z,51.40
2022-07-28T20:36:43.541Z,51.40
2022-07-28T20:39:34.522Z,51.40
2022-07-28T20:41:57.060Z,51.40
2022-07-28T20:44:29.121Z,51.40
2022-07-28T20:46:58.544Z,51.40
2022-07-28T20:49:25.447Z,51.50
2022-07-28T20:51:52.216Z,51.50
2022-07-28T20:54:19.095Z,51.60
2022-07-28T20:56:45.908Z,51.50
2022-07-28T20:59:13.397Z,51.50
2022-07-28T21:01:40.538Z,51.60
2022-07-28T21:04:07.406Z,51.60
2022-07-28T21:06:38.312Z,51.60
2022-07-28T21:09:05.338Z,51.60
2022-07-28T21:11:35.161Z,51.70
2022-07-28T21:14:02.380Z,51.70
2022-07-28T21:16:29.255Z,52.40
2022-07-28T21:18:56.019Z,51.70
2022-07-28T21:21:22.819Z,52.50
2022-07-28T21:23:49.655Z,51.80
2022-07-28T21:26:16.557Z,51.90
2022-07-28T21:29:03.859Z,51.90
2022-07-28T21:31:30.595Z,51.90
2022-07-28T21:33:57.333Z,52.00
2022-07-28T21:36:24.092Z,52.10
2022-07-28T21:38:50.874Z,52.00
2022-07-28T21:41:18.999Z,52.10
2022-07-28T21:43:46.061Z,52.00
2022-07-28T21:46:12.932Z,52.10
2022-07-28T21:48:39.810Z,52.00
2022-07-28T21:51:18.361Z,52.10
2022-07-28T21:53:48.896Z,52.20
2022-07-28T21:56:15.724Z,52.30
2022-07-28T21:58:42.626Z,52.20
2022-07-28T22:01:09.412Z,52.10
2022-07-28T22:03:37.404Z,52.20
2022-07-28T22:06:04.643Z,52.20
2022-07-28T22:08:31.674Z,52.20
2022-07-28T22:10:58.548Z,52.20
2022-07-28T22:13:25.455Z,52.30
2022-07-28T22:15:54.992Z,52.30
2022-07-28T22:18:21.732Z,52.20
2022-07-28T22:20:48.475Z,52.20
2022-07-28T22:23:28.739Z,52.10
2022-07-28T22:25:55.586Z,52.10
2022-07-28T22:28:29.984Z,52.10
2022-07-28T22:30:57.700Z,52.10
2022-07-28T22:33:24.530Z,52.10
2022-07-28T22:35:51.566Z,52.60
2022-07-28T22:38:18.327Z,52.10
2022-07-28T22:40:45.114Z,52.10
2022-07-28T22:43:13.922Z,52.20
2022-07-28T22:45:50.846Z,52.90
2022-07-28T22:48:18.514Z,52.80
2022-07-28T22:50:45.277Z,52.70
2022-07-28T22:53:12.030Z,53.00
2022-07-28T22:55:39.435Z,52.90
2022-07-28T22:58:06.330Z,52.90
2022-07-28T23:00:36.264Z,52.80
2022-07-28T23:03:04.272Z,53.70
2022-07-28T23:05:31.103Z,52.90
2022-07-28T23:07:58.692Z,52.90
2022-07-28T23:10:26.010Z,52.90
2022-07-28T23:12:54.206Z,53.10
2022-07-28T23:15:22.872Z,53.10
2022-07-28T23:17:50.445Z,53.10
2022-07-28T23:20:17.202Z,53.10
2022-07-28T23:22:43.952Z,53.20
2022-07-28T23:25:12.938Z,53.20
2022-07-28T23:27:39.698Z,53.20
2022-07-28T23:30:06.800Z,53.10
2022-07-28T23:32:33.552Z,53.10
2022-07-28T23:35:00.324Z,53.30
2022-07-28T23:37:27.077Z,53.30
2022-07-28T23:39:53.859Z,53.20
2022-07-28T23:42:20.657Z,53.20
2022-07-28T23:44:47.404Z,53.20
2022-07-28T23:47:14.239Z,53.20
2022-07-28T23:49:41.013Z,53.30
2022-07-28T23:52:07.763Z,53.30
2022-07-28T23:54:34.496Z,53.30
2022-07-28T23:57:01.322Z,53.30
2022-07-28T23:59:28.059Z,53.30
